Time;durP1;ratioP1;P1;durP2;ratioP2;P2;SDS_P1;SDS_P2;PMS_P1;PMS_P2;Temp;Humidity;BMP_temperature;BMP_pressure;BME280_temperature;BME280_humidity;BME280_pressure;Samples;Min_cycle;Max_cycle;Signal;HPM_P1;HPM_P2
2022/12/31 00:02:20;;;;;;;32.42;17.65;;;;;;;9.09;77.11;100654.90;1721748;83;21029;-65
2022/12/31 00:04:46;;;;;;;31.80;17.82;;;;;;;9.70;75.90;100652.56;1721557;83;21263;-66
2022/12/31 00:07:13;;;;;;;30.10;16.80;;;;;;;9.70;75.90;100652.56;1721811;83;21062;-65
2022/12/31 00:09:40;;;;;;;33.83;18.48;;;;;;;9.57;75.40;100649.81;1721923;83;21526;-67
2022/12/31 00:12:07;;;;;;;32.60;18.32;;;;;;;9.64;74.95;100655.36;1721972;83;21104;-65
2022/12/31 00:14:35;;;;;;;38.42;20.15;;;;;;;9.64;74.95;100655.36;1722147;83;21601;-66
2022/12/31 00:17:02;;;;;;;35.88;18.73;;;;;;;9.56;74.66;100654.67;1721739;83;21704;-65
2022/12/31 00:19:29;;;;;;;26.25;15.18;;;;;;;9.92;73.81;100659.92;1721707;83;21045;-66
2022/12/31 00:21:55;;;;;;;36.60;19.23;;;;;;;9.75;73.72;100662.97;1721586;83;21057;-66
2022/12/31 00:24:22;;;;;;;31.33;17.60;;;;;;;9.80;73.48;100665.91;1721743;83;21049;-66
2022/12/31 00:26:48;;;;;;;28.23;16.48;;;;;;;9.65;74.15;100664.52;1722038;83;21061;-65
2022/12/31 00:29:15;;;;;;;35.60;19.52;;;;;;;9.72;73.08;100663.05;1721783;83;21948;-66
2022/12/31 00:31:42;;;;;;;26.73;15.00;;;;;;;9.38;74.13;100675.23;1721723;83;21053;-66
2022/12/31 00:34:08;;;;;;;33.53;18.60;;;;;;;9.39;73.58;100670.86;1721509;83;21025;-65
2022/12/31 00:36:37;;;;;;;32.42;17.85;;;;;;;9.40;73.85;100673.44;1721704;83;21057;-65
2022/12/31 00:39:06;;;;;;;28.45;16.17;;;;;;;9.48;73.54;100681.59;1721769;83;21128;-65
2022/12/31 00:41:32;;;;;;;34.05;18.95;;;;;;;9.62;72.66;100679.52;1721905;83;21785;-65
2022/12/31 00:43:58;;;;;;;29.67;14.98;;;;;;;9.44;72.86;100683.44;1721691;83;21086;-66
2022/12/31 00:46:25;;;;;;;38.25;21.27;;;;;;;9.53;72.27;100688.94;1721932;83;21151;-65
2022/12/31 00:48:52;;;;;;;35.58;19.50;;;;;;;9.25;72.74;100684.33;1721369;82;21049;-65
2022/12/31 00:51:22;;;;;;;29.05;16.97;;;;;;;9.18;72.98;100690.63;1718110;83;21055;-66
2022/12/31 00:53:49;;;;;;;37.77;20.80;;;;;;;8.83;74.24;100686.97;1718402;83;22822;-64
2022/12/31 00:56:21;;;;;;;26.60;15.25;;;;;;;8.97;72.57;100683.63;1718178;82;21442;-65
2022/12/31 00:58:48;;;;;;;;;;;;;;;8.97;72.57;100683.63;1720927;83;21093;-65
2022/12/31 01:01:28;;;;;;;38.00;20.15;;;;;;;9.27;71.40;100691.73;1713321;82;20174;-66
2022/12/31 01:04:01;;;;;;;27.93;15.03;;;;;;;8.91;72.22;100695.56;1701787;84;21106;-67
2022/12/31 01:06:27;;;;;;;44.18;22.45;;;;;;;8.91;72.22;100695.56;1701443;84;21592;-65
2022/12/31 01:08:54;;;;;;;39.48;18.57;;;;;;;8.84;71.87;100705.78;1701567;84;21052;-67
2022/12/31 01:11:21;;;;;;;27.52;16.62;;;;;;;8.90;71.73;100706.95;1701543;84;21578;-65
2022/12/31 01:13:55;;;;;;;40.50;21.17;;;;;;;8.64;72.25;100706.63;1701598;84;21094;-65
2022/12/31 01:16:35;;;;;;;33.13;18.07;;;;;;;8.29;73.28;100711.63;1701693;84;21085;-65
2022/12/31 01:19:05;;;;;;;29.18;17.23;;;;;;;8.57;72.28;100711.99;1701296;84;21224;-66
2022/12/31 01:21:34;;;;;;;30.80;18.12;;;;;;;8.40;72.12;100712.33;1701385;84;21062;-65
2022/12/31 01:24:00;;;;;;;26.95;14.95;;;;;;;8.67;71.40;100713.12;1701448;84;21062;-65
2022/12/31 01:26:27;;;;;;;38.58;20.37;;;;;;;9.09;69.21;100711.81;1701594;84;21117;-67
2022/12/31 01:28:54;;;;;;;33.65;19.15;;;;;;;8.63;69.93;100714.08;1701568;84;21187;-64
2022/12/31 01:31:22;;;;;;;32.90;18.05;;;;;;;8.54;70.20;100716.00;1702096;84;21838;-65
2022/12/31 01:33:50;;;;;;;36.73;20.32;;;;;;;8.33;69.95;100716.38;1701716;84;21605;-65
2022/12/31 01:36:20;;;;;;;28.77;16.25;;;;;;;8.55;69.64;100711.16;1701870;84;21108;-65
2022/12/31 01:38:48;;;;;;;27.62;15.45;;;;;;;8.02;70.39;100715.59;1701775;84;21070;-65
2022/12/31 01:41:19;;;;;;;41.98;21.93;;;;;;;8.32;69.43;100711.56;1700938;84;21031;-66
2022/12/31 01:43:55;;;;;;;31.77;16.87;;;;;;;8.44;69.79;100713.57;1702501;84;21125;-65
2022/12/31 01:46:36;;;;;;;39.40;21.05;;;;;;;8.59;69.00;100718.09;1701709;84;21572;-65
2022/12/31 01:49:14;;;;;;;35.10;18.82;;;;;;;8.24;69.39;100723.11;1700531;84;21077;-64
2022/12/31 01:51:41;;;;;;;35.33;19.10;;;;;;;8.38;69.25;100721.95;1670574;85;21103;-65
2022/12/31 01:54:08;;;;;;;49.50;22.15;;;;;;;7.89;69.97;100718.00;1674705;85;21055;-64
2022/12/31 01:56:35;;;;;;;40.33;21.65;;;;;;;7.79;70.51;100717.29;1674936;85;21588;-65
2022/12/31 01:59:05;;;;;;;30.72;16.97;;;;;;;7.92;70.04;100716.20;1674528;85;21065;-65
2022/12/31 02:01:32;;;;;;;47.53;22.37;;;;;;;7.85;70.12;100732.08;1675047;84;21073;-65
2022/12/31 02:03:59;;;;;;;44.65;20.77;;;;;;;7.62;70.86;100728.05;1674653;85;21120;-65
2022/12/31 02:06:49;;;;;;;47.45;22.62;;;;;;;7.72;70.77;100730.94;1674748;85;21154;-65
2022/12/31 02:09:15;;;;;;;43.68;23.25;;;;;;;8.01;68.95;100727.00;1689317;84;21100;-65
2022/12/31 02:11:42;;;;;;;41.80;20.20;;;;;;;7.65;69.87;100724.06;1689380;84;21053;-65
2022/12/31 02:14:12;;;;;;;43.05;21.70;;;;;;;7.77;69.26;100729.10;1670309;85;21044;-67
2022/12/31 02:16:53;;;;;;;43.42;22.10;;;;;;;7.71;69.14;100739.71;1670658;85;21097;-65
2022/12/31 02:19:42;;;;;;;42.17;18.87;;;;;;;7.44;69.53;100735.73;1670895;85;21088;-65
2022/12/31 02:22:42;;;;;;;46.88;22.98;;;;;;;7.65;69.10;100740.25;1670475;84;21307;-65
2022/12/31 02:25:43;;;;;;;46.08;22.52;;;;;;;7.23;69.87;100739.53;1665379;85;21033;-65
2022/12/31 02:28:30;;;;;;;29.15;15.23;;;;;;;7.48;69.07;100736.58;1669061;85;21722;-66
2022/12/31 02:31:02;;;;;;;44.55;20.92;;;;;;;7.04;69.88;100745.87;1726812;83;21045;-64
2022/12/31 02:33:40;;;;;;;56.88;27.20;;;;;;;7.07;70.46;100744.55;1726407;83;21044;-66
2022/12/31 02:36:14;;;;;;;36.05;19.15;;;;;;;7.24;70.43;100741.25;1726517;83;22147;-66
2022/12/31 02:38:42;;;;;;;43.50;20.52;;;;;;;7.51;69.42;100752.25;1727012;83;21147;-66
2022/12/31 02:41:48;;;;;;;46.55;21.97;;;;;;;7.49;69.33;100760.12;1726362;83;21076;-65
2022/12/31 02:43:46;;;;;;;40.85;20.97;;;;;;;7.17;70.51;100765.80;1722834;83;21151;-65
2022/12/31 02:46:18;;;;;;;50.70;24.92;;;;;;;7.04;70.04;100769.45;1726504;83;21575;-65
2022/12/31 02:49:15;;;;;;;42.75;23.35;;;;;;;6.84;70.54;100767.95;1726744;83;21868;-66
2022/12/31 02:51:50;;;;;;;47.33;24.77;;;;;;;6.78;70.13;100773.25;1722925;83;21060;-67
2022/12/31 02:54:22;;;;;;;50.60;25.50;;;;;;;6.86;69.63;100775.34;1723955;83;21027;-65
2022/12/31 02:57:06;;;;;;;46.83;25.80;;;;;;;7.27;68.46;100777.91;1723462;83;21547;-67
2022/12/31 03:02:29;;;;;;;49.67;26.90;;;;;;;7.77;67.91;100778.92;1695060;84;21188;-66
2022/12/31 03:04:56;;;;;;;47.62;23.67;;;;;;;7.22;70.22;100771.84;1694927;84;21036;-65
2022/12/31 03:07:28;;;;;;;40.67;20.25;;;;;;;7.19;70.83;100772.34;1694821;84;21352;-64
2022/12/31 03:09:55;;;;;;;53.68;26.82;;;;;;;7.14;70.26;100771.09;1694984;84;21058;-65
2022/12/31 03:12:45;;;;;;;33.48;19.15;;;;;;;7.15;70.06;100768.87;1694904;84;21130;-65
2022/12/31 03:15:26;;;;;;;32.30;16.97;;;;;;;6.91;70.46;100764.38;1694732;84;21631;-65
2022/12/31 03:18:02;;;;;;;36.83;19.35;;;;;;;6.86;70.79;100762.70;1694770;84;21042;-65
2022/12/31 03:23:26;;;;;;;30.43;16.30;;;;;;;6.50;71.49;100762.21;1694999;84;21569;-66
2022/12/31 03:25:55;;;;;;;37.08;20.88;;;;;;;6.40;71.00;100761.44;1695026;84;21113;-65
2022/12/31 03:28:24;;;;;;;33.53;17.23;;;;;;;6.86;70.39;100759.64;1719961;83;21503;-64
2022/12/31 03:30:57;;;;;;;34.67;16.20;;;;;;;6.32;71.58;100767.17;1723612;83;21109;-64
2022/12/31 03:33:24;;;;;;;34.00;18.67;;;;;;;6.32;71.98;100775.02;1723702;83;21086;-65
2022/12/31 03:35:51;;;;;;;30.20;15.72;;;;;;;6.24;72.35;100775.55;1723871;83;21121;-64
2022/12/31 03:38:21;;;;;;;39.90;21.33;;;;;;;6.17;71.63;100776.48;1723913;83;21057;-65
2022/12/31 03:40:50;;;;;;;42.23;19.20;;;;;;;6.31;71.32;100775.92;1723378;83;21194;-66
2022/12/31 03:43:20;;;;;;;31.33;17.60;;;;;;;5.99;72.23;100777.05;1723828;83;21007;-65
2022/12/31 03:45:50;;;;;;;41.63;20.27;;;;;;;6.43;70.83;100774.48;1724054;83;21133;-63
2022/12/31 03:48:17;;;;;;;37.60;19.42;;;;;;;6.26;70.62;100770.73;1723952;83;21038;-65
2022/12/31 03:50:44;;;;;;;31.07;16.80;;;;;;;6.49;69.70;100768.34;1720390;83;21114;-65
2022/12/31 03:53:10;;;;;;;34.50;16.77;;;;;;;6.54;69.58;100765.67;1689259;84;21792;-64
2022/12/31 03:55:37;;;;;;;30.82;16.23;;;;;;;6.43;69.38;100766.63;1716310;83;21110;-66
2022/12/31 03:58:04;;;;;;;38.48;20.82;;;;;;;6.17;69.16;100771.26;1716719;83;22201;-64
2022/12/31 04:00:31;;;;;;;38.40;20.43;;;;;;;6.04;69.79;100770.48;1716226;83;21044;-66
2022/12/31 04:02:57;;;;;;;31.37;16.82;;;;;;;5.89;69.97;100772.76;1716250;83;21085;-64
2022/12/31 04:05:24;;;;;;;48.35;24.10;;;;;;;5.79;70.01;100774.99;1716499;83;21231;-64
2022/12/31 04:07:54;;;;;;;43.40;20.43;;;;;;;6.04;70.22;100771.34;1716457;83;21086;-65
2022/12/31 04:10:21;;;;;;;40.98;20.52;;;;;;;5.81;70.93;100774.09;1716532;83;21083;-65
2022/12/31 04:12:47;;;;;;;43.70;21.70;;;;;;;5.99;70.75;100771.82;1716596;83;21094;-65
2022/12/31 04:15:17;;;;;;;29.57;16.23;;;;;;;6.31;69.96;100775.92;1716694;83;21118;-66
2022/12/31 04:17:44;;;;;;;48.70;24.47;;;;;;;6.17;69.83;100786.95;1717149;83;21118;-65
2022/12/31 04:20:11;;;;;;;28.07;14.63;;;;;;;6.20;70.35;100781.69;1716453;83;21530;-65
2022/12/31 04:22:37;;;;;;;35.80;18.92;;;;;;;6.25;69.74;100791.66;1716679;83;21134;-65
2022/12/31 04:25:10;;;;;;;44.67;21.68;;;;;;;6.14;70.15;100794.80;1716558;83;21066;-65
2022/12/31 04:27:42;;;;;;;26.07;14.78;;;;;;;6.05;70.49;100800.55;1718693;83;22237;-64
2022/12/31 04:30:12;;;;;;;48.68;23.87;;;;;;;6.04;69.99;100802.72;1688417;84;21136;-66
2022/12/31 04:32:39;;;;;;;39.20;19.77;;;;;;;5.92;70.42;100815.86;1664736;86;21060;-65
2022/12/31 04:35:08;;;;;;;36.65;19.37;;;;;;;5.49;71.67;100820.03;1688311;85;21110;-65
2022/12/31 04:37:35;;;;;;;43.10;21.73;;;;;;;5.33;72.21;100828.38;1688536;85;21551;-66
2022/12/31 04:40:02;;;;;;;34.25;18.17;;;;;;;5.08;73.58;100830.20;1688037;85;21570;-65
2022/12/31 04:42:29;;;;;;;40.23;21.15;;;;;;;5.53;72.14;100828.28;1688150;85;21107;-65
2022/12/31 04:44:56;;;;;;;39.60;20.23;;;;;;;5.45;72.37;100833.56;1687950;85;21599;-64
2022/12/31 04:47:22;;;;;;;32.00;16.25;;;;;;;5.52;71.93;100830.48;1688278;85;21103;-65
2022/12/31 04:49:49;;;;;;;46.35;22.17;;;;;;;5.43;71.72;100827.47;1688140;85;21059;-64
2022/12/31 04:52:16;;;;;;;31.68;17.90;;;;;;;5.64;71.57;100828.23;1709943;83;21062;-65
2022/12/31 04:54:42;;;;;;;42.27;22.45;;;;;;;5.25;72.40;100837.55;1711422;83;21250;-66
2022/12/31 04:57:09;;;;;;;46.40;25.05;;;;;;;5.28;72.79;100837.11;1711237;83;21058;-65
2022/12/31 04:59:35;;;;;;;29.60;16.42;;;;;;;5.26;72.93;100840.58;1711657;83;21067;-65
2022/12/31 05:02:02;;;;;;;47.65;24.30;;;;;;;5.21;72.85;100837.13;1711767;83;21601;-65
2022/12/31 05:04:29;;;;;;;38.90;20.80;;;;;;;5.46;72.28;100835.73;1711692;83;21096;-66
2022/12/31 05:06:55;;;;;;;25.52;15.35;;;;;;;5.49;71.81;100832.23;1711480;83;21166;-65
2022/12/31 05:09:23;;;;;;;34.20;18.07;;;;;;;5.38;72.13;100835.77;1711575;83;21518;-64
2022/12/31 05:11:49;;;;;;;34.00;18.32;;;;;;;5.48;72.08;100845.73;1711523;83;21609;-65
2022/12/31 05:14:16;;;;;;;38.98;20.97;;;;;;;5.43;71.94;100855.34;1711634;83;21050;-67
2022/12/31 05:16:42;;;;;;;46.15;23.32;;;;;;;5.33;72.27;100851.88;1711366;83;21062;-66
2022/12/31 05:19:08;;;;;;;34.65;18.35;;;;;;;5.17;72.66;100851.06;1711660;83;21211;-66
2022/12/31 05:21:35;;;;;;;38.58;21.42;;;;;;;5.54;72.01;100848.74;1711322;83;21058;-64
2022/12/31 05:24:04;;;;;;;39.20;20.15;;;;;;;5.23;72.95;100851.05;1711605;83;21034;-65
2022/12/31 05:26:31;;;;;;;41.98;20.55;;;;;;;5.16;72.59;100848.03;1715229;82;21109;-64
2022/12/31 05:28:59;;;;;;;53.87;23.92;;;;;;;5.17;72.96;100854.98;1748532;82;21026;-65
2022/12/31 05:31:27;;;;;;;39.15;18.75;;;;;;;5.08;73.74;100864.14;1748528;82;21033;-64
2022/12/31 05:33:55;;;;;;;50.92;24.65;;;;;;;5.05;73.35;100858.94;1748276;82;21506;-66
2022/12/31 05:36:21;;;;;;;40.12;19.85;;;;;;;5.03;73.41;100865.46;1748396;82;21100;-65
2022/12/31 05:38:50;;;;;;;43.30;22.75;;;;;;;5.12;73.59;100863.27;1748419;82;21049;-65
2022/12/31 05:41:16;;;;;;;51.28;23.87;;;;;;;5.02;74.05;100855.05;1748185;82;21006;-65
2022/12/31 05:43:43;;;;;;;49.85;24.27;;;;;;;5.05;74.75;100853.28;1748402;82;21142;-66
2022/12/31 05:46:10;;;;;;;51.25;25.40;;;;;;;5.10;74.26;100854.57;1748101;82;21728;-64
2022/12/31 05:48:38;;;;;;;48.02;25.25;;;;;;;5.01;74.70;100849.38;1748221;82;21050;-64
2022/12/31 05:51:05;;;;;;;47.30;22.37;;;;;;;5.28;74.02;100849.73;1748323;81;21045;-64
2022/12/31 05:53:33;;;;;;;56.20;28.65;;;;;;;5.35;73.43;100850.58;1748302;82;21076;-65
2022/12/31 05:55:59;;;;;;;40.78;21.57;;;;;;;5.23;73.74;100847.58;1747968;82;21525;-66
2022/12/31 05:58:26;;;;;;;53.50;25.15;;;;;;;5.18;73.74;100849.34;1748022;82;21041;-66
2022/12/31 06:00:53;;;;;;;47.35;24.25;;;;;;;5.42;73.04;100850.98;1748253;82;21048;-64
2022/12/31 06:03:20;;;;;;;44.38;21.60;;;;;;;5.68;72.33;100856.06;1748451;82;21439;-66
2022/12/31 06:05:46;;;;;;;57.55;27.98;;;;;;;5.47;72.54;100862.27;1748280;82;21033;-65
2022/12/31 06:08:13;;;;;;;43.00;21.97;;;;;;;5.37;73.38;100863.20;1748082;82;21096;-66
2022/12/31 06:10:46;;;;;;;45.67;23.07;;;;;;;5.30;73.49;100859.73;1748169;82;21017;-66
2022/12/31 06:13:12;;;;;;;64.72;30.80;;;;;;;5.35;73.54;100861.02;1716753;82;21500;-66
2022/12/31 06:15:39;;;;;;;57.50;26.40;;;;;;;5.41;74.27;100855.78;1748204;82;21104;-65
2022/12/31 06:18:06;;;;;;;66.55;34.55;;;;;;;5.40;74.42;100852.72;1748069;82;21092;-66
2022/12/31 06:20:36;;;;;;;58.68;29.48;;;;;;;5.90;73.89;100851.59;1748214;82;21137;-65
2022/12/31 06:23:04;;;;;;;44.73;21.75;;;;;;;6.42;71.73;100853.87;1748339;82;21072;-65
2022/12/31 06:25:31;;;;;;;46.30;24.20;;;;;;;5.93;72.61;100848.95;1748292;82;21017;-65
2022/12/31 06:27:58;;;;;;;56.50;25.90;;;;;;;5.99;72.50;100856.80;1742196;82;21050;-64
2022/12/31 06:30:24;;;;;;;57.45;27.95;;;;;;;5.91;71.48;100853.32;1739983;82;21053;-65
2022/12/31 06:32:51;;;;;;;69.92;34.05;;;;;;;5.84;71.94;100865.59;1739630;82;21182;-65
2022/12/31 06:35:17;;;;;;;70.95;35.28;;;;;;;5.91;71.93;100859.86;1708397;82;21061;-66
2022/12/31 06:37:44;;;;;;;55.28;29.82;;;;;;;6.14;70.95;100862.80;1739783;82;21045;-65
2022/12/31 06:40:12;;;;;;;54.53;27.25;;;;;;;5.87;72.35;100862.08;1739673;82;21097;-65
2022/12/31 06:42:39;;;;;;;51.23;27.70;;;;;;;5.72;73.25;100859.55;1739671;82;21030;-65
2022/12/31 06:45:06;;;;;;;56.63;28.67;;;;;;;5.69;73.62;100865.66;1739949;82;21096;-65
2022/12/31 06:47:33;;;;;;;52.50;27.65;;;;;;;5.71;73.93;100871.75;1739617;82;21084;-64
2022/12/31 06:49:59;;;;;;;57.30;29.00;;;;;;;5.47;74.39;100875.33;1739901;82;21108;-64
2022/12/31 06:52:26;;;;;;;54.77;29.27;;;;;;;5.69;74.50;100883.95;1744064;82;21080;-65
2022/12/31 06:54:53;;;;;;;49.13;25.62;;;;;;;5.92;74.32;100892.98;1745827;82;21104;-66
2022/12/31 06:57:20;;;;;;;67.03;34.65;;;;;;;6.28;73.73;100891.91;1745588;82;21609;-66
2022/12/31 06:59:47;;;;;;;54.53;27.48;;;;;;;6.47;74.31;100885.23;1745982;82;21506;-66
2022/12/31 07:02:25;;;;;;;80.72;38.92;;;;;;;6.34;74.78;100883.58;1745505;82;21551;-66
2022/12/31 07:05:06;;;;;;;65.70;31.80;;;;;;;6.60;75.18;100885.98;1745774;82;21076;-66
2022/12/31 07:07:44;;;;;;;58.28;30.88;;;;;;;7.08;74.46;100890.33;1745762;82;21061;-65
2022/12/31 07:10:48;;;;;;;62.93;32.10;;;;;;;6.96;75.34;100891.77;1745858;82;21142;-66
2022/12/31 07:13:54;;;;;;;62.65;33.02;;;;;;;6.98;76.10;100887.39;1745606;81;21633;-65
2022/12/31 07:16:50;;;;;;;62.80;32.95;;;;;;;7.05;76.72;100887.30;1745461;82;21057;-65
2022/12/31 07:19:31;;;;;;;69.82;37.38;;;;;;;7.24;77.04;100887.09;1745724;82;21046;-66
2022/12/31 07:21:59;;;;;;;81.17;42.35;;;;;;;7.52;77.55;100887.64;1745282;81;21073;-66
2022/12/31 07:24:27;;;;;;;67.92;36.50;;;;;;;7.80;77.42;100885.55;1745503;82;21170;-66
2022/12/31 07:27:07;;;;;;;80.10;40.63;;;;;;;8.19;76.75;100882.80;1747703;81;21801;-65
2022/12/31 07:29:58;;;;;;;80.47;42.88;;;;;;;8.32;76.87;100886.53;1752936;81;21019;-65
2022/12/31 07:32:50;;;;;;;81.53;43.28;;;;;;;8.63;76.79;100900.49;1753569;81;21486;-66
2022/12/31 07:35:50;;;;;;;89.40;46.53;;;;;;;8.75;76.20;100906.88;1754175;81;21035;-66
2022/12/31 07:38:43;;;;;;;80.90;43.42;;;;;;;8.92;74.97;100902.17;1745595;81;21163;-66
2022/12/31 07:41:41;;;;;;;94.28;47.85;;;;;;;8.94;74.22;100897.77;1753075;81;21054;-66
2022/12/31 07:44:27;;;;;;;79.15;42.48;;;;;;;9.24;73.36;100901.58;1753737;81;21538;-66
2022/12/31 07:46:56;;;;;;;93.60;50.52;;;;;;;9.20;74.66;100904.30;1753505;81;21090;-66
2022/12/31 07:49:24;;;;;;;101.30;52.62;;;;;;;9.20;74.66;100904.30;1753860;81;21050;-66
2022/12/31 07:51:53;;;;;;;82.57;44.23;;;;;;;9.42;75.45;100911.33;1756369;81;21209;-66
2022/12/31 07:54:20;;;;;;;99.10;49.65;;;;;;;9.50;74.50;100907.22;1761847;81;21587;-66
2022/12/31 07:56:46;;;;;;;96.75;49.98;;;;;;;9.68;73.03;100907.30;1762216;81;21011;-66
2022/12/31 07:59:43;;;;;;;86.65;45.33;;;;;;;9.47;73.72;100909.47;1762200;81;21082;-65
2022/12/31 08:02:38;;;;;;;102.92;54.60;;;;;;;9.23;74.06;100917.39;1762283;81;21085;-66
2022/12/31 08:05:28;;;;;;;94.60;49.50;;;;;;;9.88;73.25;100909.92;1762527;81;21081;-67
2022/12/31 08:08:19;;;;;;;87.33;46.10;;;;;;;10.42;73.54;100906.12;1762390;81;21074;-66
2022/12/31 08:11:12;;;;;;;81.55;45.43;;;;;;;10.83;73.81;100912.09;1762596;81;21376;-66
2022/12/31 08:13:43;;;;;;;89.62;46.80;;;;;;;11.38;70.73;100915.04;1762182;81;20975;-67
2022/12/31 08:16:12;;;;;;;78.20;43.35;;;;;;;11.93;70.66;100920.07;1762341;81;21097;-66
2022/12/31 08:18:39;;;;;;;81.65;43.05;;;;;;;12.28;69.20;100913.30;1762281;81;21807;-66
2022/12/31 08:21:40;;;;;;;72.85;40.70;;;;;;;12.76;64.48;100907.33;1761960;81;21082;-66
2022/12/31 08:24:27;;;;;;;64.85;37.93;;;;;;;13.22;61.49;100903.95;1750403;81;21007;-67
2022/12/31 08:27:52;;;;;;;66.95;39.38;;;;;;;13.85;60.08;100904.33;1754473;81;21100;-68
2022/12/31 08:30:20;;;;;;;65.78;38.50;;;;;;;14.32;57.32;100911.33;1700595;84;21037;-66
2022/12/31 08:33:03;;;;;;;68.85;39.35;;;;;;;14.67;55.31;100912.55;1731520;82;21218;-67
2022/12/31 08:36:08;;;;;;;61.30;37.00;;;;;;;15.14;55.62;100898.22;1700568;84;21124;-66
2022/12/31 08:39:00;;;;;;;75.80;45.78;;;;;;;15.69;53.94;100898.39;1731571;82;21119;-66
2022/12/31 08:41:47;;;;;;;77.22;48.42;;;;;;;16.17;51.65;100892.66;1700603;84;21021;-67
2022/12/31 08:44:22;;;;;;;77.00;43.73;;;;;;;15.98;50.75;100896.19;1731733;82;21056;-66
2022/12/31 08:47:28;;;;;;;83.82;47.27;;;;;;;16.33;50.47;100890.97;1731966;82;21290;-67
2022/12/31 08:49:55;;;;;;;86.87;49.03;;;;;;;16.37;48.62;100884.58;1732030;82;21065;-66
2022/12/31 08:52:24;;;;;;;78.17;45.60;;;;;;;15.73;47.82;100889.39;1729997;81;21026;-66
2022/12/31 08:56:47;;;;;;;79.45;47.55;;;;;;;14.28;52.40;100879.25;1796654;79;28539;-66
2022/12/31 08:59:52;;;;;;;71.12;42.95;;;;;;;16.11;49.49;100871.23;1756354;81;21571;-65
2022/12/31 09:02:52;;;;;;;82.37;51.98;;;;;;;16.46;47.72;100872.16;1756390;81;21123;-67
2022/12/31 09:06:01;;;;;;;79.42;47.88;;;;;;;16.67;46.82;100871.55;1752276;81;21561;-67
2022/12/31 09:08:54;;;;;;;66.60;42.58;;;;;;;16.99;46.14;100867.27;1736515;81;21017;-67
2022/12/31 09:11:45;;;;;;;62.45;38.23;;;;;;;17.37;45.92;100855.08;1748644;81;20926;-67
2022/12/31 09:14:27;;;;;;;59.83;36.38;;;;;;;17.29;46.50;100859.94;1756490;81;21104;-67
2022/12/31 09:17:17;;;;;;;55.20;34.45;;;;;;;17.74;45.10;100853.07;1755448;81;21160;-67
2022/12/31 09:19:44;;;;;;;54.20;32.55;;;;;;;17.65;45.64;100854.05;1756794;81;21564;-67
2022/12/31 09:22:11;;;;;;;55.12;32.98;;;;;;;17.78;44.98;100855.95;1756337;81;21127;-67
2022/12/31 09:24:38;;;;;;;55.48;33.02;;;;;;;17.79;44.24;100857.66;1756671;81;21612;-66
2022/12/31 09:27:27;;;;;;;51.80;30.12;;;;;;;17.29;45.48;100850.63;1756380;81;21171;-66
2022/12/31 09:30:08;;;;;;;58.13;34.48;;;;;;;17.13;45.18;100852.38;1756661;81;21787;-66
2022/12/31 09:33:11;;;;;;;55.83;34.17;;;;;;;16.65;45.81;100851.29;1756218;81;21099;-67
2022/12/31 09:35:49;;;;;;;55.83;31.70;;;;;;;16.32;46.68;100853.38;1726206;82;21740;-66
2022/12/31 09:38:27;;;;;;;61.95;37.35;;;;;;;15.98;47.74;100850.17;1725910;82;21084;-66
2022/12/31 09:41:21;;;;;;;57.67;34.75;;;;;;;16.02;47.72;100849.95;1718718;83;22156;-66
2022/12/31 09:44:15;;;;;;;60.95;37.15;;;;;;;16.29;47.97;100846.91;1696331;83;21212;-67
2022/12/31 09:47:16;;;;;;;58.90;36.63;;;;;;;16.62;47.78;100843.48;1718482;83;21594;-66
2022/12/31 09:50:04;;;;;;;;;;;;;;;16.83;47.68;100837.08;1721011;83;21062;-67
2022/12/31 09:52:54;;;;;;;55.73;34.05;;;;;;;17.28;46.92;100843.59;1716983;83;20254;-68
2022/12/31 09:55:31;;;;;;;61.13;37.33;;;;;;;17.30;47.43;100842.16;1712639;83;21509;-68
2022/12/31 09:58:30;;;;;;;73.25;42.08;;;;;;;17.79;46.51;100832.35;1692465;83;21127;-67
2022/12/31 10:01:10;;;;;;;61.85;37.80;;;;;;;17.90;46.29;100833.58;1698440;84;21130;-67
2022/12/31 10:04:16;;;;;;;59.88;35.65;;;;;;;18.19;44.75;100835.44;1705727;83;21164;-68
2022/12/31 10:07:14;;;;;;;56.75;34.60;;;;;;;18.53;44.08;100822.81;1705211;84;21078;-66
2022/12/31 10:10:08;;;;;;;55.92;34.40;;;;;;;17.94;44.46;100819.14;1702929;84;25992;-66
2022/12/31 10:13:18;;;;;;;64.10;36.53;;;;;;;17.07;46.09;100823.42;1640459;86;21761;-67
2022/12/31 10:16:04;;;;;;;58.80;34.90;;;;;;;16.30;47.88;100814.05;1704985;83;21566;-66
2022/12/31 10:18:42;;;;;;;51.28;32.60;;;;;;;15.95;49.01;100807.36;1705043;84;21037;-67
2022/12/31 10:21:35;;;;;;;52.53;32.58;;;;;;;15.52;50.32;100805.38;1699200;84;21478;-66
2022/12/31 10:24:17;;;;;;;57.08;33.08;;;;;;;15.31;50.95;100796.63;1704910;84;21116;-65
2022/12/31 10:27:17;;;;;;;52.98;31.93;;;;;;;14.93;52.11;100788.63;1710505;82;21121;-67
2022/12/31 10:30:06;;;;;;;62.35;36.00;;;;;;;14.68;52.70;100783.55;1734251;82;21039;-66
2022/12/31 10:33:19;;;;;;;56.08;34.33;;;;;;;15.34;51.82;100777.05;1716458;82;21789;-66
2022/12/31 10:35:59;;;;;;;64.62;36.33;;;;;;;15.19;52.32;100771.52;1734370;82;21066;-67
2022/12/31 10:38:37;;;;;;;71.47;40.23;;;;;;;15.04;52.77;100772.20;1734030;82;21652;-66
2022/12/31 10:41:59;;;;;;;72.22;39.70;;;;;;;14.96;53.00;100763.75;1711883;82;21135;-67
2022/12/31 10:44:40;;;;;;;68.92;38.58;;;;;;;15.02;53.37;100766.11;1734253;82;21034;-66
2022/12/31 10:47:44;;;;;;;63.50;36.68;;;;;;;15.15;53.05;100766.42;1734477;82;21113;-67
2022/12/31 10:50:40;;;;;;;61.92;35.17;;;;;;;15.44;52.70;100772.57;1734429;82;21699;-66
2022/12/31 10:53:37;;;;;;;55.40;30.15;;;;;;;15.45;51.97;100764.98;1734332;82;21522;-66
2022/12/31 10:56:27;;;;;;;45.55;25.75;;;;;;;15.73;51.47;100757.06;1734026;81;21763;-67
2022/12/31 10:59:34;;;;;;;43.87;25.35;;;;;;;15.91;51.70;100764.61;1734437;81;21042;-67
2022/12/31 11:02:24;;;;;;;45.85;26.35;;;;;;;15.91;50.78;100757.97;1734430;82;21436;-67
2022/12/31 11:05:21;;;;;;;49.65;25.80;;;;;;;16.40;50.04;100754.16;1734577;82;21081;-66
2022/12/31 11:08:28;;;;;;;43.13;23.75;;;;;;;16.76;48.96;100743.89;1734115;82;21518;-67
2022/12/31 11:11:21;;;;;;;40.85;22.85;;;;;;;16.84;48.18;100745.72;1734357;82;21237;-66
2022/12/31 11:14:20;;;;;;;46.20;25.77;;;;;;;17.03;47.87;100747.39;1734284;82;21522;-65
2022/12/31 11:17:12;;;;;;;40.75;23.70;;;;;;;17.25;47.26;100739.92;1734614;82;22198;-67
2022/12/31 11:20:26;;;;;;;41.00;23.05;;;;;;;17.27;47.44;100730.53;1734421;82;21101;-68
2022/12/31 11:23:22;;;;;;;40.30;23.30;;;;;;;17.86;46.05;100724.14;1734181;82;21522;-66
2022/12/31 11:26:34;;;;;;;43.48;22.20;;;;;;;18.21;45.60;100728.73;1734315;82;21122;-67
2022/12/31 11:29:36;;;;;;;41.42;20.50;;;;;;;18.21;45.49;100726.91;1703481;84;21078;-66
2022/12/31 11:32:34;;;;;;;38.25;20.30;;;;;;;17.94;45.60;100724.54;1704961;83;21641;-67
2022/12/31 11:35:46;;;;;;;41.40;21.90;;;;;;;17.73;45.66;100726.13;1704834;84;21550;-67
2022/12/31 11:38:46;;;;;;;37.85;21.17;;;;;;;17.60;46.08;100726.47;1705244;83;21027;-67
2022/12/31 11:41:44;;;;;;;37.55;21.10;;;;;;;17.33;46.73;100726.21;1704747;83;21162;-66
2022/12/31 11:44:50;;;;;;;51.70;23.92;;;;;;;17.23;47.21;100724.54;1705093;84;21042;-65
2022/12/31 11:48:01;;;;;;;39.53;22.93;;;;;;;17.11;47.56;100707.90;1704701;84;21106;-65
2022/12/31 11:51:10;;;;;;;37.65;20.75;;;;;;;16.79;48.13;100707.84;1682852;83;21644;-65
2022/12/31 11:54:05;;;;;;;45.63;23.75;;;;;;;16.14;49.42;100704.53;1693011;83;21573;-66
2022/12/31 11:56:37;;;;;;;39.90;22.93;;;;;;;15.85;49.96;100693.19;1705262;83;21590;-67
2022/12/31 11:59:09;;;;;;;43.30;23.85;;;;;;;15.47;51.05;100703.88;1684323;84;21145;-66
2022/12/31 12:02:00;;;;;;;46.60;23.75;;;;;;;15.50;51.25;100706.38;1704696;83;21101;-67
2022/12/31 12:04:26;;;;;;;49.38;25.77;;;;;;;15.10;52.16;100702.50;1704681;84;21554;-66
2022/12/31 12:06:53;;;;;;;44.88;25.62;;;;;;;15.08;52.61;100712.79;1705018;84;21050;-66
2022/12/31 12:09:29;;;;;;;50.83;27.17;;;;;;;15.26;52.37;100711.92;1704933;84;21152;-66